sensor_id;sensor_type;location;lat;lon;timestamp;pressure;altitude;pressure_sealevel;temperature;humidity
55066;BME280;40964;42.114;24.220;2022-07-29T00:00:42;97924.66;;;22.44;68.23
55066;BME280;40964;42.114;24.220;2022-07-29T00:03:12;97917.41;;;22.44;67.78
55066;BME280;40964;42.114;24.220;2022-07-29T00:05:41;97921.41;;;22.47;67.76
55066;BME280;40964;42.114;24.220;2022-07-29T00:08:07;97927.03;;;22.45;67.32
55066;BME280;40964;42.114;24.220;2022-07-29T00:10:33;97915.75;;;22.29;67.60
55066;BME280;40964;42.114;24.220;2022-07-29T00:12:59;97926.63;;;22.38;67.27
55066;BME280;40964;42.114;24.220;2022-07-29T00:15:25;97926.09;;;22.36;67.62
55066;BME280;40964;42.114;24.220;2022-07-29T00:17:51;97926.09;;;22.36;67.76
55066;BME280;40964;42.114;24.220;2022-07-29T00:20:16;97920.09;;;22.25;67.64
55066;BME280;40964;42.114;24.220;2022-07-29T00:22:42;97925.38;;;22.30;67.84
55066;BME280;40964;42.114;24.220;2022-07-29T00:25:08;97928.34;;;22.29;67.39
55066;BME280;40964;42.114;24.220;2022-07-29T00:27:37;97931.16;;;22.19;68.03
55066;BME280;40964;42.114;24.220;2022-07-29T00:30:04;97939.56;;;22.12;68.18
55066;BME280;40964;42.114;24.220;2022-07-29T00:32:30;97937.09;;;22.16;67.95
55066;BME280;40964;42.114;24.220;2022-07-29T00:34:55;97927.47;;;22.15;68.09
55066;BME280;40964;42.114;24.220;2022-07-29T00:37:39;97925.88;;;22.14;68.30
55066;BME280;40964;42.114;24.220;2022-07-29T00:40:06;97924.78;;;22.15;67.81
55066;BME280;40964;42.114;24.220;2022-07-29T00:42:41;97929.66;;;22.13;67.94
55066;BME280;40964;42.114;24.220;2022-07-29T00:45:07;97925.88;;;22.14;67.45
55066;BME280;40964;42.114;24.220;2022-07-29T00:47:33;97926.38;;;22.16;67.92
55066;BME280;40964;42.114;24.220;2022-07-29T00:49:58;97919.47;;;22.09;67.13
55066;BME280;40964;42.114;24.220;2022-07-29T00:52:24;97915.50;;;22.07;67.50
55066;BME280;40964;42.114;24.220;2022-07-29T00:54:50;97924.03;;;22.09;67.52
55066;BME280;40964;42.114;24.220;2022-07-29T00:57:15;97923.25;;;22.08;67.58
55066;BME280;40964;42.114;24.220;2022-07-29T00:59:42;97922.16;;;22.09;67.36
55066;BME280;40964;42.114;24.220;2022-07-29T01:02:07;97923.25;;;22.08;67.73
55066;BME280;40964;42.114;24.220;2022-07-29T01:04:33;97922.22;;;22.04;67.97
55066;BME280;40964;42.114;24.220;2022-07-29T01:07:01;97922.56;;;21.98;68.19
55066;BME280;40964;42.114;24.220;2022-07-29T01:09:27;97926.09;;;21.93;67.78
55066;BME280;40964;42.114;24.220;2022-07-29T01:11:53;97925.38;;;21.88;67.63
55066;BME280;40964;42.114;24.220;2022-07-29T01:14:20;97921.66;;;21.83;67.95
55066;BME280;40964;42.114;24.220;2022-07-29T01:16:55;97916.88;;;21.80;68.33
55066;BME280;40964;42.114;24.220;2022-07-29T01:30:36;97912.50;;;21.66;68.37
55066;BME280;40964;42.114;24.220;2022-07-29T01:33:10;97902.97;;;21.54;68.75
55066;BME280;40964;42.114;24.220;2022-07-29T01:35:39;97913.38;;;21.56;68.95
55066;BME280;40964;42.114;24.220;2022-07-29T01:38:12;97909.38;;;21.59;68.99
55066;BME280;40964;42.114;24.220;2022-07-29T01:40:47;97909.38;;;21.59;69.21
55066;BME280;40964;42.114;24.220;2022-07-29T01:43:17;97898.94;;;21.57;69.31
55066;BME280;40964;42.114;24.220;2022-07-29T01:45:52;97899.22;;;21.56;69.33
55066;BME280;40964;42.114;24.220;2022-07-29T01:48:21;97913.75;;;21.49;69.18
55066;BME280;40964;42.114;24.220;2022-07-29T01:50:53;97909.25;;;21.45;69.24
55066;BME280;40964;42.114;24.220;2022-07-29T01:53:25;97902.28;;;21.44;69.59
55066;BME280;40964;42.114;24.220;2022-07-29T01:55:52;97903.88;;;21.45;69.54
55066;BME280;40964;42.114;24.220;2022-07-29T01:58:20;97901.78;;;21.42;69.48
55066;BME280;40964;42.114;24.220;2022-07-29T02:00:48;97903.41;;;21.38;69.29
55066;BME280;40964;42.114;24.220;2022-07-29T02:03:16;97907.97;;;21.37;69.18
55066;BME280;40964;42.114;24.220;2022-07-29T02:05:45;97896.19;;;21.38;69.26
55066;BME280;40964;42.114;24.220;2022-07-29T02:08:15;97898.94;;;21.33;69.02
55066;BME280;40964;42.114;24.220;2022-07-29T02:10:43;97895.50;;;21.28;68.71
55066;BME280;40964;42.114;24.220;2022-07-29T02:13:11;97899.78;;;21.29;69.04
55066;BME280;40964;42.114;24.220;2022-07-29T02:15:39;97892.28;;;21.31;69.26
55066;BME280;40964;42.114;24.220;2022-07-29T02:18:10;97891.47;;;21.30;69.48
55066;BME280;40964;42.114;24.220;2022-07-29T02:20:37;97882.44;;;21.21;68.82
55066;BME280;40964;42.114;24.220;2022-07-29T02:23:07;97876.38;;;21.10;68.52
55066;BME280;40964;42.114;24.220;2022-07-29T02:25:35;97895.88;;;21.16;68.95
55066;BME280;40964;42.114;24.220;2022-07-29T02:28:03;97886.28;;;21.10;69.02
55066;BME280;40964;42.114;24.220;2022-07-29T02:30:30;97890.63;;;21.06;69.09
55066;BME280;40964;42.114;24.220;2022-07-29T02:32:56;97880.00;;;20.95;69.51
55066;BME280;40964;42.114;24.220;2022-07-29T02:35:23;97883.47;;;20.96;69.65
55066;BME280;40964;42.114;24.220;2022-07-29T02:37:50;97892.28;;;20.96;69.54
55066;BME280;40964;42.114;24.220;2022-07-29T02:40:38;97889.91;;;20.95;69.68
55066;BME280;40964;42.114;24.220;2022-07-29T02:43:05;97880.84;;;20.91;69.50
55066;BME280;40964;42.114;24.220;2022-07-29T02:45:32;97884.88;;;20.88;69.64
55066;BME280;40964;42.114;24.220;2022-07-29T02:48:00;97889.53;;;20.73;69.95
55066;BME280;40964;42.114;24.220;2022-07-29T02:50:33;97880.31;;;20.60;70.77
55066;BME280;40964;42.114;24.220;2022-07-29T02:53:13;97888.81;;;20.67;70.76
55066;BME280;40964;42.114;24.220;2022-07-29T02:55:47;97887.75;;;20.63;70.48
55066;BME280;40964;42.114;24.220;2022-07-29T03:00:55;97889.84;;;20.66;70.53
55066;BME280;40964;42.114;24.220;2022-07-29T03:03:22;97882.91;;;20.65;71.61
55066;BME280;40964;42.114;24.220;2022-07-29T03:05:55;97893.09;;;20.63;71.96
55066;BME280;40964;42.114;24.220;2022-07-29T03:08:22;97893.66;;;20.60;71.67
55066;BME280;40964;42.114;24.220;2022-07-29T03:10:48;97895.28;;;20.56;72.13
55066;BME280;40964;42.114;24.220;2022-07-29T03:13:14;97891.59;;;20.52;72.58
55066;BME280;40964;42.114;24.220;2022-07-29T03:15:42;97896.88;;;20.57;72.22
55066;BME280;40964;42.114;24.220;2022-07-29T03:18:09;97893.66;;;20.60;72.04
55066;BME280;40964;42.114;24.220;2022-07-29T03:20:37;97897.41;;;20.59;72.16
55066;BME280;40964;42.114;24.220;2022-07-29T03:23:03;97887.25;;;20.56;71.67
55066;BME280;40964;42.114;24.220;2022-07-29T03:25:29;97895.25;;;20.61;71.88
55066;BME280;40964;42.114;24.220;2022-07-29T03:27:55;97894.19;;;20.57;71.71
55066;BME280;40964;42.114;24.220;2022-07-29T03:30:22;97899.03;;;20.55;71.72
55066;BME280;40964;42.114;24.220;2022-07-29T03:32:49;97907.06;;;20.55;71.97
55066;BME280;40964;42.114;24.220;2022-07-29T03:35:15;97901.19;;;20.53;71.89
55066;BME280;40964;42.114;24.220;2022-07-29T03:37:42;97910.00;;;20.53;73.52
55066;BME280;40964;42.114;24.220;2022-07-29T03:40:10;97908.13;;;20.54;72.96
55066;BME280;40964;42.114;24.220;2022-07-29T03:42:38;97908.69;;;20.51;72.70
55066;BME280;40964;42.114;24.220;2022-07-29T03:45:07;97914.03;;;20.51;73.92
55066;BME280;40964;42.114;24.220;2022-07-29T03:47:35;97913.75;;;20.52;73.71
55066;BME280;40964;42.114;24.220;2022-07-29T03:50:06;97907.91;;;20.50;73.73
55066;BME280;40964;42.114;24.220;2022-07-29T03:52:33;97907.34;;;20.48;73.17
55066;BME280;40964;42.114;24.220;2022-07-29T03:54:59;97913.44;;;20.59;72.37
55066;BME280;40964;42.114;24.220;2022-07-29T03:57:27;97916.59;;;20.66;71.93
55066;BME280;40964;42.114;24.220;2022-07-29T03:59:54;97911.50;;;20.69;73.13
55066;BME280;40964;42.114;24.220;2022-07-29T04:02:20;97914.91;;;20.75;71.99
55066;BME280;40964;42.114;24.220;2022-07-29T04:04:47;97915.97;;;20.79;71.58
55066;BME280;40964;42.114;24.220;2022-07-29T04:07:13;97917.00;;;20.83;71.43
55066;BME280;40964;42.114;24.220;2022-07-29T04:09:39;97917.00;;;20.83;71.34
55066;BME280;40964;42.114;24.220;2022-07-29T04:12:05;97915.69;;;20.81;72.92
55066;BME280;40964;42.114;24.220;2022-07-29T04:14:34;97918.84;;;20.88;73.00
55066;BME280;40964;42.114;24.220;2022-07-29T04:17:03;97918.75;;;20.98;72.75
55066;BME280;40964;42.114;24.220;2022-07-29T04:19:30;97920.63;;;20.97;71.89
55066;BME280;40964;42.114;24.220;2022-07-29T04:21:56;97916.78;;;21.09;71.46
55066;BME280;40964;42.114;24.220;2022-07-29T04:24:22;97922.03;;;21.19;71.13
55066;BME280;40964;42.114;24.220;2022-07-29T04:26:48;97920.63;;;21.32;70.98
55066;BME280;40964;42.114;24.220;2022-07-29T04:29:14;97912.03;;;21.35;71.32
55066;BME280;40964;42.114;24.220;2022-07-29T04:31:43;97920.81;;;21.40;72.37
55066;BME280;40964;42.114;24.220;2022-07-29T04:34:10;97930.19;;;21.38;71.97
55066;BME280;40964;42.114;24.220;2022-07-29T04:36:35;97927.69;;;21.46;71.78
55066;BME280;40964;42.114;24.220;2022-07-29T04:39:01;97930.34;;;21.46;71.22
55066;BME280;40964;42.114;24.220;2022-07-29T04:41:30;97928.22;;;21.48;71.56
55066;BME280;40964;42.114;24.220;2022-07-29T04:43:56;97928.75;;;21.45;71.88
55066;BME280;40964;42.114;24.220;2022-07-29T04:46:22;97929.81;;;21.49;71.46
55066;BME280;40964;42.114;24.220;2022-07-29T04:48:48;97929.19;;;21.58;71.18
55066;BME280;40964;42.114;24.220;2022-07-29T04:51:14;97927.84;;;21.55;71.33
55066;BME280;40964;42.114;24.220;2022-07-29T04:53:41;97936.13;;;21.59;71.53
55066;BME280;40964;42.114;24.220;2022-07-29T04:56:07;97937.47;;;21.56;70.32
55066;BME280;40964;42.114;24.220;2022-07-29T04:58:35;97933.22;;;21.55;71.14
55066;BME280;40964;42.114;24.220;2022-07-29T05:01:01;97934.97;;;21.65;71.38
55066;BME280;40964;42.114;24.220;2022-07-29T05:03:27;97933.00;;;21.75;72.46
55066;BME280;40964;42.114;24.220;2022-07-29T05:05:52;97931.56;;;21.83;72.10
55066;BME280;40964;42.114;24.220;2022-07-29T05:08:18;97915.94;;;21.90;71.69
55066;BME280;40964;42.114;24.220;2022-07-29T05:10:43;97932.81;;;22.15;69.45
55066;BME280;40964;42.114;24.220;2022-07-29T05:13:09;97928.78;;;22.36;69.45
55066;BME280;40964;42.114;24.220;2022-07-29T05:15:35;97932.25;;;22.55;69.40
55066;BME280;40964;42.114;24.220;2022-07-29T05:18:01;97932.13;;;22.65;66.96
55066;BME280;40964;42.114;24.220;2022-07-29T05:20:27;97933.19;;;22.83;67.72
55066;BME280;40964;42.114;24.220;2022-07-29T05:22:58;97940.69;;;23.00;67.54
55066;BME280;40964;42.114;24.220;2022-07-29T05:25:27;97948.59;;;23.10;67.04
55066;BME280;40964;42.114;24.220;2022-07-29T05:27:53;97942.78;;;23.22;66.89
55066;BME280;40964;42.114;24.220;2022-07-29T05:30:19;97944.97;;;23.34;65.66
55066;BME280;40964;42.114;24.220;2022-07-29T05:32:45;97944.78;;;23.44;63.83
55066;BME280;40964;42.114;24.220;2022-07-29T05:35:11;97939.38;;;23.63;64.40
55066;BME280;40964;42.114;24.220;2022-07-29T05:37:37;97947.72;;;23.89;62.92
55066;BME280;40964;42.114;24.220;2022-07-29T05:40:03;97943.13;;;24.17;61.76
55066;BME280;40964;42.114;24.220;2022-07-29T05:42:29;97933.38;;;24.34;60.83
55066;BME280;40964;42.114;24.220;2022-07-29T05:44:55;97936.50;;;24.64;59.61
55066;BME280;40964;42.114;24.220;2022-07-29T05:47:21;97932.69;;;24.65;58.13
55066;BME280;40964;42.114;24.220;2022-07-29T05:49:46;97944.44;;;24.69;59.95
55066;BME280;40964;42.114;24.220;2022-07-29T05:52:12;97952.91;;;24.99;58.33
55066;BME280;40964;42.114;24.220;2022-07-29T05:54:42;97952.28;;;25.02;57.16
55066;BME280;40964;42.114;24.220;2022-07-29T05:57:07;97950.50;;;24.97;57.41
55066;BME280;40964;42.114;24.220;2022-07-29T05:59:36;97952.16;;;24.84;57.01
55066;BME280;40964;42.114;24.220;2022-07-29T06:02:02;97955.69;;;24.94;57.09
55066;BME280;40964;42.114;24.220;2022-07-29T06:04:31;97964.44;;;24.99;57.51
55066;BME280;40964;42.114;24.220;2022-07-29T06:06:56;97945.19;;;25.06;56.17
55066;BME280;40964;42.114;24.220;2022-07-29T06:09:22;97960.75;;;25.09;55.96
55066;BME280;40964;42.114;24.220;2022-07-29T06:11:48;97958.53;;;25.11;56.72
55066;BME280;40964;42.114;24.220;2022-07-29T06:14:14;97958.22;;;25.35;58.10
55066;BME280;40964;42.114;24.220;2022-07-29T06:16:39;97966.91;;;25.63;55.67
55066;BME280;40964;42.114;24.220;2022-07-29T06:19:05;97969.44;;;25.68;54.75
55066;BME280;40964;42.114;24.220;2022-07-29T06:21:30;97970.88;;;25.65;54.43
55066;BME280;40964;42.114;24.220;2022-07-29T06:23:56;97973.03;;;25.86;53.46
55066;BME280;40964;42.114;24.220;2022-07-29T06:26:22;97971.41;;;25.76;56.17
55066;BME280;40964;42.114;24.220;2022-07-29T06:28:48;97963.81;;;25.78;54.88
55066;BME280;40964;42.114;24.220;2022-07-29T06:31:14;97972.34;;;26.11;54.51
55066;BME280;40964;42.114;24.220;2022-07-29T06:33:39;97969.81;;;26.23;54.11
55066;BME280;40964;42.114;24.220;2022-07-29T06:36:05;97966.22;;;26.37;53.33
55066;BME280;40964;42.114;24.220;2022-07-29T06:38:32;97964.69;;;26.62;52.46
55066;BME280;40964;42.114;24.220;2022-07-29T06:40:58;97964.19;;;26.77;51.58
55066;BME280;40964;42.114;24.220;2022-07-29T06:43:43;97976.56;;;26.52;52.49
55066;BME280;40964;42.114;24.220;2022-07-29T06:46:14;97968.00;;;26.67;51.06
55066;BME280;40964;42.114;24.220;2022-07-29T06:48:41;97969.91;;;26.84;53.41
55066;BME280;40964;42.114;24.220;2022-07-29T06:51:08;97953.09;;;26.52;51.55
55066;BME280;40964;42.114;24.220;2022-07-29T06:53:34;97960.56;;;26.64;52.37
55066;BME280;40964;42.114;24.220;2022-07-29T06:56:00;97963.25;;;26.73;52.70
55066;BME280;40964;42.114;24.220;2022-07-29T06:58:27;97964.50;;;26.93;52.74
55066;BME280;40964;42.114;24.220;2022-07-29T07:00:52;97959.09;;;27.27;53.19
55066;BME280;40964;42.114;24.220;2022-07-29T07:03:18;97954.31;;;27.33;51.23
55066;BME280;40964;42.114;24.220;2022-07-29T07:05:46;97955.91;;;27.34;50.70
55066;BME280;40964;42.114;24.220;2022-07-29T07:08:12;97959.56;;;27.29;51.11
55066;BME280;40964;42.114;24.220;2022-07-29T07:10:38;97962.44;;;27.24;51.54
55066;BME280;40964;42.114;24.220;2022-07-29T07:13:05;97959.81;;;27.54;49.86
55066;BME280;40964;42.114;24.220;2022-07-29T07:15:30;97951.22;;;27.60;49.62
55066;BME280;40964;42.114;24.220;2022-07-29T07:17:56;97961.72;;;28.00;49.71
55066;BME280;40964;42.114;24.220;2022-07-29T07:20:23;97949.94;;;28.25;47.86
55066;BME280;40964;42.114;24.220;2022-07-29T07:22:49;97963.81;;;28.24;47.93
55066;BME280;40964;42.114;24.220;2022-07-29T07:25:15;97959.03;;;28.21;48.74
55066;BME280;40964;42.114;24.220;2022-07-29T07:27:43;97955.00;;;28.06;48.41
55066;BME280;40964;42.114;24.220;2022-07-29T07:30:08;97961.91;;;28.24;48.35
55066;BME280;40964;42.114;24.220;2022-07-29T07:32:34;97963.53;;;28.46;47.10
55066;BME280;40964;42.114;24.220;2022-07-29T07:35:00;97965.06;;;28.77;46.23
55066;BME280;40964;42.114;24.220;2022-07-29T07:37:26;97957.63;;;29.07;46.51
55066;BME280;40964;42.114;24.220;2022-07-29T07:39:52;97956.34;;;29.25;46.28
55066;BME280;40964;42.114;24.220;2022-07-29T07:42:19;97949.78;;;29.59;46.49
55066;BME280;40964;42.114;24.220;2022-07-29T07:44:44;97949.34;;;29.70;45.44
55066;BME280;40964;42.114;24.220;2022-07-29T07:47:11;97948.31;;;29.50;45.71
55066;BME280;40964;42.114;24.220;2022-07-29T07:49:37;97955.97;;;29.48;45.49
55066;BME280;40964;42.114;24.220;2022-07-29T07:52:04;97949.16;;;29.42;46.20
55066;BME280;40964;42.114;24.220;2022-07-29T07:54:29;97956.88;;;29.19;46.72
55066;BME280;40964;42.114;24.220;2022-07-29T07:56:55;97957.81;;;29.23;45.60
55066;BME280;40964;42.114;24.220;2022-07-29T07:59:21;97954.50;;;29.17;44.89
55066;BME280;40964;42.114;24.220;2022-07-29T08:01:46;97959.41;;;29.36;44.79
55066;BME280;40964;42.114;24.220;2022-07-29T08:04:12;97953.03;;;29.53;42.96
55066;BME280;40964;42.114;24.220;2022-07-29T08:06:37;97959.72;;;29.80;43.10
55066;BME280;40964;42.114;24.220;2022-07-29T08:09:03;97959.31;;;29.45;43.86
55066;BME280;40964;42.114;24.220;2022-07-29T08:11:30;97948.41;;;29.20;44.88
55066;BME280;40964;42.114;24.220;2022-07-29T08:13:55;97948.47;;;29.45;45.05
55066;BME280;40964;42.114;24.220;2022-07-29T08:16:21;97944.72;;;29.70;45.06
55066;BME280;40964;42.114;24.220;2022-07-29T08:18:47;97945.38;;;29.67;43.25
55066;BME280;40964;42.114;24.220;2022-07-29T08:21:14;97935.44;;;29.83;42.16
55066;BME280;40964;42.114;24.220;2022-07-29T08:23:40;97936.81;;;30.14;42.03
55066;BME280;40964;42.114;24.220;2022-07-29T08:26:12;97943.59;;;30.20;41.51
55066;BME280;40964;42.114;24.220;2022-07-29T08:28:42;97945.16;;;29.96;41.00
55066;BME280;40964;42.114;24.220;2022-07-29T08:31:12;97941.66;;;30.33;41.16
55066;BME280;40964;42.114;24.220;2022-07-29T08:33:38;97924.84;;;30.55;39.86
55066;BME280;40964;42.114;24.220;2022-07-29T08:36:05;97940.56;;;31.18;39.58
55066;BME280;40964;42.114;24.220;2022-07-29T08:38:31;97937.28;;;31.24;38.00
55066;BME280;40964;42.114;24.220;2022-07-29T08:40:58;97931.44;;;31.10;38.02
55066;BME280;40964;42.114;24.220;2022-07-29T08:43:24;97939.50;;;30.78;38.43
55066;BME280;40964;42.114;24.220;2022-07-29T08:45:50;97936.84;;;30.66;39.04
55066;BME280;40964;42.114;24.220;2022-07-29T08:48:18;97933.78;;;30.68;38.64
55066;BME280;40964;42.114;24.220;2022-07-29T08:50:47;97930.13;;;30.76;38.75
55066;BME280;40964;42.114;24.220;2022-07-29T08:53:15;97935.25;;;30.65;38.89
55066;BME280;40964;42.114;24.220;2022-07-29T08:55:48;97935.25;;;30.65;38.64
55066;BME280;40964;42.114;24.220;2022-07-29T08:58:15;97920.91;;;30.65;38.84
55066;BME280;40964;42.114;24.220;2022-07-29T09:00:43;97917.13;;;30.69;38.30
55066;BME280;40964;42.114;24.220;2022-07-29T09:03:12;97918.66;;;31.11;39.19
55066;BME280;40964;42.114;24.220;2022-07-29T09:05:46;97922.75;;;31.04;38.10
55066;BME280;40964;42.114;24.220;2022-07-29T09:08:13;97911.31;;;30.83;38.92
55066;BME280;40964;42.114;24.220;2022-07-29T09:10:39;97914.34;;;30.82;38.60
55066;BME280;40964;42.114;24.220;2022-07-29T09:13:05;97915.31;;;31.01;37.78
55066;BME280;40964;42.114;24.220;2022-07-29T09:15:31;97915.59;;;31.12;37.68
55066;BME280;40964;42.114;24.220;2022-07-29T09:17:57;97915.66;;;31.16;38.09
55066;BME280;40964;42.114;24.220;2022-07-29T09:20:26;97908.00;;;31.33;38.40
55066;BME280;40964;42.114;24.220;2022-07-29T09:23:12;97912.66;;;31.64;36.42
55066;BME280;40964;42.114;24.220;2022-07-29T09:25:39;97905.38;;;31.84;36.41
55066;BME280;40964;42.114;24.220;2022-07-29T09:28:10;97911.00;;;31.91;36.74
55066;BME280;40964;42.114;24.220;2022-07-29T09:30:53;97911.81;;;32.11;34.89
55066;BME280;40964;42.114;24.220;2022-07-29T09:33:20;97902.00;;;32.07;35.81
55066;BME280;40964;42.114;24.220;2022-07-29T09:35:58;97905.06;;;32.05;34.99
55066;BME280;40964;42.114;24.220;2022-07-29T09:38:24;97901.59;;;32.24;35.64
55066;BME280;40964;42.114;24.220;2022-07-29T09:41:01;97904.09;;;32.13;36.39
55066;BME280;40964;42.114;24.220;2022-07-29T09:43:27;97896.59;;;31.91;35.72
55066;BME280;40964;42.114;24.220;2022-07-29T09:45:52;97898.09;;;32.24;37.03
55066;BME280;40964;42.114;24.220;2022-07-29T09:48:21;97893.25;;;32.52;35.25
55066;BME280;40964;42.114;24.220;2022-07-29T09:50:47;97892.53;;;32.74;33.98
55066;BME280;40964;42.114;24.220;2022-07-29T09:53:47;97893.97;;;32.68;36.74
55066;BME280;40964;42.114;24.220;2022-07-29T09:56:13;97887.56;;;32.80;33.39
55066;BME280;40964;42.114;24.220;2022-07-29T09:58:39;97888.94;;;32.70;32.81
55066;BME280;40964;42.114;24.220;2022-07-29T10:01:05;97887.81;;;32.52;34.88
55066;BME280;40964;42.114;24.220;2022-07-29T10:03:30;97886.16;;;32.67;32.71
55066;BME280;40964;42.114;24.220;2022-07-29T10:06:10;97884.59;;;32.46;34.57
55066;BME280;40964;42.114;24.220;2022-07-29T10:08:37;97892.19;;;32.57;32.30
55066;BME280;40964;42.114;24.220;2022-07-29T10:13:36;97881.94;;;32.89;31.78
55066;BME280;40964;42.114;24.220;2022-07-29T10:16:02;97891.19;;;32.65;32.08
55066;BME280;40964;42.114;24.220;2022-07-29T10:18:28;97877.28;;;32.89;31.49
55066;BME280;40964;42.114;24.220;2022-07-29T10:20:54;97873.78;;;33.12;33.24
55066;BME280;40964;42.114;24.220;2022-07-29T10:23:20;97868.09;;;33.20;32.39
55066;BME280;40964;42.114;24.220;2022-07-29T10:25:45;97868.44;;;32.76;30.46
55066;BME280;40964;42.114;24.220;2022-07-29T10:28:11;97876.38;;;32.62;30.63
55066;BME280;40964;42.114;24.220;2022-07-29T10:30:37;97866.09;;;32.75;31.92
55066;BME280;40964;42.114;24.220;2022-07-29T10:36:07;97851.81;;;33.01;31.37
55066;BME280;40964;42.114;24.220;2022-07-29T10:38:42;97851.16;;;32.88;31.68
55066;BME280;40964;42.114;24.220;2022-07-29T10:44:05;97852.91;;;33.69;29.73
55066;BME280;40964;42.114;24.220;2022-07-29T10:46:36;97833.03;;;33.95;30.81
55066;BME280;40964;42.114;24.220;2022-07-29T10:49:08;97839.25;;;34.22;29.13
55066;BME280;40964;42.114;24.220;2022-07-29T10:54:40;97831.81;;;34.19;28.76
55066;BME280;40964;42.114;24.220;2022-07-29T10:57:30;97825.66;;;34.25;29.57
55066;BME280;40964;42.114;24.220;2022-07-29T11:05:15;97824.41;;;33.89;28.45
55066;BME280;40964;42.114;24.220;2022-07-29T11:08:21;97820.44;;;34.43;27.98
55066;BME280;40964;42.114;24.220;2022-07-29T11:11:31;97807.81;;;34.05;29.31
55066;BME280;40964;42.114;24.220;2022-07-29T11:16:09;97806.19;;;34.30;27.95
55066;BME280;40964;42.114;24.220;2022-07-29T11:18:35;97800.22;;;34.51;28.37
55066;BME280;40964;42.114;24.220;2022-07-29T11:21:00;97804.63;;;34.63;30.32
55066;BME280;40964;42.114;24.220;2022-07-29T11:23:29;97798.59;;;34.47;28.08
55066;BME280;40964;42.114;24.220;2022-07-29T11:28:57;97794.00;;;34.54;27.71
55066;BME280;40964;42.114;24.220;2022-07-29T11:31:41;97790.94;;;34.26;27.31
55066;BME280;40964;42.114;24.220;2022-07-29T11:44:55;97774.22;;;35.05;26.02
55066;BME280;40964;42.114;24.220;2022-07-29T11:47:25;97770.38;;;34.72;25.71
55066;BME280;40964;42.114;24.220;2022-07-29T11:49:51;97773.03;;;34.62;25.69
55066;BME280;40964;42.114;24.220;2022-07-29T11:52:20;97772.97;;;34.58;27.16
55066;BME280;40964;42.114;24.220;2022-07-29T11:54:50;97765.50;;;34.89;25.79
55066;BME280;40964;42.114;24.220;2022-07-29T11:57:18;97760.81;;;34.89;24.34
55066;BME280;40964;42.114;24.220;2022-07-29T11:59:45;97768.72;;;34.61;24.59
55066;BME280;40964;42.114;24.220;2022-07-29T12:02:12;97768.72;;;34.61;24.75
55066;BME280;40964;42.114;24.220;2022-07-29T12:04:51;97760.56;;;35.12;26.69
55066;BME280;40964;42.114;24.220;2022-07-29T12:07:18;97761.59;;;34.90;24.33
55066;BME280;40964;42.114;24.220;2022-07-29T12:09:51;97772.63;;;35.04;24.36
55066;BME280;40964;42.114;24.220;2022-07-29T12:12:17;97762.84;;;34.99;25.51
55066;BME280;40964;42.114;24.220;2022-07-29T12:14:43;97751.31;;;35.24;25.25
55066;BME280;40964;42.114;24.220;2022-07-29T12:17:29;97759.66;;;35.42;23.12
55066;BME280;40964;42.114;24.220;2022-07-29T12:19:56;97750.16;;;35.28;24.19
55066;BME280;40964;42.114;24.220;2022-07-29T12:22:48;97747.03;;;35.26;23.74
55066;BME280;40964;42.114;24.220;2022-07-29T12:25:14;97757.56;;;35.24;23.11
55066;BME280;40964;42.114;24.220;2022-07-29T12:27:42;97744.50;;;35.04;23.68
55066;BME280;40964;42.114;24.220;2022-07-29T12:30:15;97748.59;;;35.27;23.23
55066;BME280;40964;42.114;24.220;2022-07-29T12:32:47;97754.63;;;34.99;23.72
55066;BME280;40964;42.114;24.220;2022-07-29T12:35:14;97744.72;;;34.84;22.56
55066;BME280;40964;42.114;24.220;2022-07-29T12:37:41;97749.09;;;34.89;23.94
55066;BME280;40964;42.114;24.220;2022-07-29T12:40:09;97739.53;;;34.72;23.97
55066;BME280;40964;42.114;24.220;2022-07-29T12:42:35;97739.44;;;34.61;23.05
55066;BME280;40964;42.114;24.220;2022-07-29T12:45:02;97740.56;;;34.57;23.39
55066;BME280;40964;42.114;24.220;2022-07-29T12:47:28;97737.13;;;34.63;22.84
55066;BME280;40964;42.114;24.220;2022-07-29T12:50:10;97730.97;;;34.77;23.28
55066;BME280;40964;42.114;24.220;2022-07-29T12:52:37;97724.91;;;34.94;23.69
55066;BME280;40964;42.114;24.220;2022-07-29T12:55:03;97728.84;;;34.97;22.81
55066;BME280;40964;42.114;24.220;2022-07-29T12:57:29;97737.00;;;34.93;25.88
55066;BME280;40964;42.114;24.220;2022-07-29T13:00:04;97719.66;;;35.23;23.63
55066;BME280;40964;42.114;24.220;2022-07-29T13:02:30;97722.78;;;35.25;23.07
55066;BME280;40964;42.114;24.220;2022-07-29T13:04:57;97718.41;;;35.13;23.19
55066;BME280;40964;42.114;24.220;2022-07-29T13:07:25;97716.97;;;34.79;23.26
55066;BME280;40964;42.114;24.220;2022-07-29T13:09:52;97716.69;;;34.94;23.19
55066;BME280;40964;42.114;24.220;2022-07-29T13:12:18;97711.50;;;34.82;22.02
55066;BME280;40964;42.114;24.220;2022-07-29T13:14:47;97711.69;;;35.00;22.96
55066;BME280;40964;42.114;24.220;2022-07-29T13:17:21;97708.88;;;35.48;22.84
55066;BME280;40964;42.114;24.220;2022-07-29T13:20:23;97704.69;;;35.68;22.25
55066;BME280;40964;42.114;24.220;2022-07-29T13:22:49;97712.09;;;35.61;21.44
55066;BME280;40964;42.114;24.220;2022-07-29T13:25:27;97703.31;;;35.37;22.80
55066;BME280;40964;42.114;24.220;2022-07-29T13:27:54;97699.75;;;35.26;23.18
55066;BME280;40964;42.114;24.220;2022-07-29T13:30:20;97694.81;;;35.46;23.05
55066;BME280;40964;42.114;24.220;2022-07-29T13:32:46;97697.09;;;35.40;23.19
55066;BME280;40964;42.114;24.220;2022-07-29T13:35:13;97698.63;;;35.34;22.96
55066;BME280;40964;42.114;24.220;2022-07-29T13:37:39;97699.69;;;35.19;23.50
55066;BME280;40964;42.114;24.220;2022-07-29T13:40:06;97700.38;;;35.02;23.10
55066;BME280;40964;42.114;24.220;2022-07-29T13:42:32;97687.91;;;35.08;23.76